Time;durP1;ratioP1;P1;durP2;ratioP2;P2;SDS_P1;SDS_P2;PMS_P1;PMS_P2;Temp;Humidity;BMP_temperature;BMP_pressure;BME280_temperature;BME280_humidity;BME280_pressure;Samples;Min_cycle;Max_cycle;Signal;HPM_P1;HPM_P2
2022/04/13 00:00:06;;;;;;;7.47;3.87;;;;;;;11.05;50.67;101501.50;4986346;28;20187;-70
2022/04/13 00:02:35;;;;;;;5.57;3.30;;;;;;;11.02;50.57;101498.88;4990307;28;20195;-70
2022/04/13 00:05:00;;;;;;;5.77;3.43;;;;;;;10.98;51.72;101494.50;4985644;28;20637;-70
2022/04/13 00:07:26;;;;;;;4.33;3.53;;;;;;;11.00;50.67;101495.38;4999502;28;20196;-71
2022/04/13 00:09:51;;;;;;;5.53;3.60;;;;;;;10.97;50.98;101501.28;4986584;28;20198;-70
2022/04/13 00:12:17;;;;;;;5.57;3.60;;;;;;;10.95;51.23;101492.72;4972915;28;20218;-70
2022/04/13 00:14:42;;;;;;;6.00;3.57;;;;;;;10.94;51.48;101496.09;4962868;28;20212;-70
2022/04/13 00:17:07;;;;;;;5.53;3.37;;;;;;;10.88;51.43;101488.22;4970886;28;20227;-70
2022/04/13 00:19:33;;;;;;;5.07;3.30;;;;;;;10.82;51.65;101493.19;4990601;28;20184;-71
2022/04/13 00:21:58;;;;;;;5.37;3.70;;;;;;;10.84;51.40;101493.22;4979807;28;20642;-71
2022/04/13 00:24:24;;;;;;;5.67;3.77;;;;;;;10.82;51.89;101487.19;4971218;28;20306;-70
2022/04/13 00:26:49;;;;;;;4.97;3.20;;;;;;;10.76;52.30;101480.22;4981986;28;20188;-71
2022/04/13 00:29:15;;;;;;;8.90;4.00;;;;;;;10.73;52.14;101477.56;4971711;28;20712;-71
2022/04/13 00:31:40;;;;;;;6.70;3.87;;;;;;;10.72;52.50;101478.38;4983058;28;20188;-70
2022/04/13 00:34:06;;;;;;;6.63;3.73;;;;;;;10.67;52.23;101471.38;4993568;28;20229;-71
2022/04/13 00:36:31;;;;;;;5.67;3.73;;;;;;;10.67;52.39;101469.69;4993024;28;20720;-70
2022/04/13 00:38:56;;;;;;;5.87;3.77;;;;;;;10.62;52.82;101471.25;4987200;28;20192;-71
2022/04/13 00:41:22;;;;;;;5.37;3.70;;;;;;;10.57;53.23;101475.38;4988957;28;20579;-71
2022/04/13 00:44:07;;;;;;;4.70;3.73;;;;;;;10.57;52.53;101471.94;4986558;28;20223;-70
2022/04/13 00:46:33;;;;;;;6.73;3.77;;;;;;;10.54;52.64;101471.84;4986074;28;20211;-70
2022/04/13 00:49:00;;;;;;;6.93;4.03;;;;;;;10.54;52.74;101469.28;4989498;28;20203;-71
2022/04/13 00:51:27;;;;;;;4.17;3.37;;;;;;;10.50;52.76;101462.34;4982795;28;20933;-71
2022/04/13 00:53:55;;;;;;;6.13;4.13;;;;;;;10.48;52.84;101462.31;4992367;28;20215;-71
2022/04/13 00:56:24;;;;;;;4.73;3.40;;;;;;;10.46;53.27;101471.63;4984750;28;20195;-71
2022/04/13 00:58:54;;;;;;;7.03;3.90;;;;;;;10.43;53.41;101465.53;4988825;28;20195;-71
2022/04/13 01:01:22;;;;;;;6.23;4.00;;;;;;;10.41;53.12;101462.09;4984338;28;20278;-71
2022/04/13 01:03:51;;;;;;;6.23;4.10;;;;;;;10.37;53.18;101462.81;4996098;28;20212;-71
2022/04/13 01:06:18;;;;;;;6.27;3.97;;;;;;;10.37;53.06;101465.38;4984194;28;20199;-70
2022/04/13 01:08:48;;;;;;;5.73;3.80;;;;;;;10.36;53.10;101451.69;4990615;28;20207;-70
2022/04/13 01:11:14;;;;;;;7.27;4.27;;;;;;;10.33;53.85;101454.16;4985193;28;20215;-70
2022/04/13 01:13:39;;;;;;;7.87;3.90;;;;;;;10.29;53.92;101462.59;4988152;28;20270;-70
2022/04/13 01:16:06;;;;;;;6.80;3.90;;;;;;;10.29;54.10;101457.47;4981735;28;20203;-71
2022/04/13 01:18:31;;;;;;;5.00;3.67;;;;;;;10.29;53.39;101456.59;4986119;28;20195;-70
2022/04/13 01:20:57;;;;;;;6.10;4.10;;;;;;;10.26;53.99;101457.38;4978625;28;20188;-71
2022/04/13 01:23:24;;;;;;;7.50;4.60;;;;;;;10.24;54.46;101464.13;4976483;28;20569;-71
2022/04/13 01:25:50;;;;;;;6.20;3.93;;;;;;;10.23;54.65;101456.41;4993013;28;20198;-70
2022/04/13 01:28:17;;;;;;;7.33;4.30;;;;;;;10.20;54.07;101457.19;4988577;28;20242;-70
2022/04/13 01:30:42;;;;;;;6.63;4.20;;;;;;;10.18;54.41;101458.81;4987330;28;20207;-71
2022/04/13 01:33:08;;;;;;;6.53;4.13;;;;;;;10.19;53.94;101463.09;4986088;28;20731;-71
2022/04/13 01:35:33;;;;;;;5.70;4.10;;;;;;;10.18;53.95;101463.94;4986484;28;20208;-70
2022/04/13 01:37:59;;;;;;;6.27;4.13;;;;;;;10.18;54.22;101463.09;4986289;28;20184;-70
2022/04/13 01:40:24;;;;;;;7.77;4.70;;;;;;;10.18;54.45;101457.97;4980870;28;20223;-70
2022/04/13 01:42:49;;;;;;;5.77;4.00;;;;;;;10.19;54.49;101459.69;4987772;28;20192;-70
2022/04/13 01:45:19;;;;;;;5.27;4.23;;;;;;;10.18;54.12;101456.25;4984586;28;20643;-70
2022/04/13 01:47:49;;;;;;;5.90;4.03;;;;;;;10.15;54.63;101458.75;4970166;28;20271;-71
2022/04/13 01:50:19;;;;;;;8.37;4.43;;;;;;;10.17;54.48;101456.19;4988458;28;20276;-71
2022/04/13 01:52:46;;;;;;;5.87;3.83;;;;;;;10.16;53.99;101457.91;4984848;28;20242;-71
2022/04/13 01:55:12;;;;;;;5.53;4.27;;;;;;;10.14;54.24;101451.84;4986653;28;20212;-71
2022/04/13 01:57:40;;;;;;;6.03;3.90;;;;;;;10.13;54.32;101455.25;4990965;28;20705;-70
2022/04/13 02:00:08;;;;;;;7.37;4.50;;;;;;;10.10;54.76;101456.84;4983439;28;20214;-70
2022/04/13 02:02:34;;;;;;;6.20;4.13;;;;;;;10.09;54.95;101455.97;4986060;28;20274;-71
2022/04/13 02:05:00;;;;;;;6.20;4.00;;;;;;;10.07;54.44;101452.50;4985617;28;20314;-71
2022/04/13 02:07:26;;;;;;;7.10;4.20;;;;;;;10.08;54.50;101451.69;4981458;28;20971;-71
2022/04/13 02:09:53;;;;;;;6.23;4.27;;;;;;;10.10;54.09;101454.28;4984881;28;20188;-70
2022/04/13 02:12:18;;;;;;;6.37;4.30;;;;;;;10.09;54.92;101450.00;4983199;28;20234;-71
2022/04/13 02:14:43;;;;;;;7.17;4.63;;;;;;;10.06;55.16;101455.91;4986296;28;20219;-71
2022/04/13 02:17:10;;;;;;;6.53;4.07;;;;;;;10.04;54.44;101452.41;4988165;28;20184;-70
2022/04/13 02:19:35;;;;;;;7.23;4.80;;;;;;;10.01;54.78;101447.19;4989814;28;20753;-70
2022/04/13 02:22:01;;;;;;;6.40;4.60;;;;;;;9.99;55.24;101443.69;4990714;28;20278;-70
2022/04/13 02:24:26;;;;;;;5.63;4.03;;;;;;;9.93;55.90;101442.63;4991636;28;20228;-71
2022/04/13 02:26:52;;;;;;;5.70;4.43;;;;;;;9.87;56.23;101448.41;4993894;28;20196;-70
2022/04/13 02:29:17;;;;;;;8.00;4.23;;;;;;;9.87;55.57;101445.84;4991027;28;20215;-71
2022/04/13 02:31:42;;;;;;;6.30;4.17;;;;;;;9.89;55.59;101443.34;4986604;28;20253;-70
2022/04/13 02:34:08;;;;;;;6.67;4.20;;;;;;;9.80;55.52;101441.38;4989920;28;20231;-70
2022/04/13 02:36:33;;;;;;;5.97;4.37;;;;;;;9.82;55.62;101436.31;4974969;28;20207;-71
2022/04/13 02:38:59;;;;;;;5.43;4.13;;;;;;;9.78;56.62;101439.59;4992687;28;20522;-70
2022/04/13 02:41:24;;;;;;;7.50;4.60;;;;;;;9.76;56.02;101439.53;4989916;28;20192;-70
2022/04/13 02:43:49;;;;;;;7.47;4.67;;;;;;;9.75;56.40;101434.38;4991106;28;20219;-70
2022/04/13 02:46:15;;;;;;;8.17;5.07;;;;;;;9.74;55.90;101428.41;4993109;28;20206;-70
2022/04/13 02:48:40;;;;;;;7.03;4.87;;;;;;;9.72;57.13;101431.72;4990110;28;20207;-71
2022/04/13 02:51:05;;;;;;;6.80;4.60;;;;;;;9.70;57.28;101428.25;4987751;28;20192;-70
2022/04/13 02:53:31;;;;;;;5.63;4.30;;;;;;;9.69;56.26;101436.72;4992069;28;20226;-70
2022/04/13 02:55:57;;;;;;;7.50;4.60;;;;;;;9.71;55.82;101433.41;4987529;28;20200;-70
2022/04/13 02:58:23;;;;;;;6.13;4.60;;;;;;;9.72;56.85;101432.56;4989952;28;20199;-71
2022/04/13 03:00:48;;;;;;;5.67;4.50;;;;;;;9.73;56.14;101436.03;4989096;28;20176;-70
2022/04/13 03:03:13;;;;;;;9.17;4.70;;;;;;;9.73;56.20;101434.31;4979164;28;20641;-70
2022/04/13 03:05:39;;;;;;;7.00;4.27;;;;;;;9.76;56.67;101438.66;4986935;28;20195;-70
2022/04/13 03:08:06;;;;;;;8.43;4.50;;;;;;;9.73;57.33;101436.03;4992834;28;20211;-71
2022/04/13 03:10:31;;;;;;;6.67;4.77;;;;;;;9.72;57.21;101435.13;4986918;28;20177;-71
2022/04/13 03:12:57;;;;;;;8.00;4.63;;;;;;;9.71;57.06;101430.84;4991434;28;20211;-70
2022/04/13 03:15:23;;;;;;;7.47;4.70;;;;;;;9.73;56.16;101430.91;4992232;28;20611;-71
2022/04/13 03:17:49;;;;;;;7.00;4.77;;;;;;;9.72;56.73;101430.03;4990174;28;20187;-71
2022/04/13 03:20:14;;;;;;;7.63;4.83;;;;;;;9.73;56.78;101433.47;4987406;28;20203;-71
2022/04/13 03:22:39;;;;;;;6.10;4.30;;;;;;;9.71;56.35;101440.19;4991342;28;20319;-70
2022/04/13 03:25:05;;;;;;;6.17;4.73;;;;;;;9.71;56.39;101437.63;4988484;28;20226;-71
2022/04/13 03:27:30;;;;;;;9.20;4.80;;;;;;;9.73;56.97;101441.13;4989666;28;20188;-71
2022/04/13 03:29:56;;;;;;;8.43;4.93;;;;;;;9.69;56.50;101444.41;4984719;28;20191;-70
2022/04/13 03:32:21;;;;;;;7.33;4.80;;;;;;;9.66;57.17;101442.63;4979793;28;20198;-70
2022/04/13 03:34:46;;;;;;;7.47;4.93;;;;;;;9.64;57.29;101439.13;4991402;28;20288;-71
2022/04/13 03:37:12;;;;;;;5.23;4.60;;;;;;;9.64;57.20;101438.28;4989199;28;20249;-70
2022/04/13 03:39:37;;;;;;;8.77;5.03;;;;;;;9.62;57.61;101442.44;4989810;28;20184;-70
2022/04/13 03:42:03;;;;;;;8.37;4.90;;;;;;;9.59;57.41;101439.81;4988614;28;20233;-70
2022/04/13 03:44:28;;;;;;;7.40;5.20;;;;;;;9.58;56.84;101444.06;4989220;28;20241;-70
2022/04/13 03:46:54;;;;;;;8.97;5.23;;;;;;;9.56;57.51;101447.38;4981140;28;20187;-71
2022/04/13 03:49:19;;;;;;;7.20;5.40;;;;;;;9.52;57.45;101451.53;4988823;28;20757;-71
2022/04/13 03:51:44;;;;;;;8.10;4.83;;;;;;;9.52;58.33;101443.84;4994304;28;20653;-70
2022/04/13 03:54:10;;;;;;;11.43;5.73;;;;;;;9.54;57.96;101446.47;4989737;28;20211;-71
2022/04/13 03:56:36;;;;;;;6.90;5.00;;;;;;;9.52;58.07;101443.84;4981873;28;20569;-70
2022/04/13 03:59:03;;;;;;;8.37;5.03;;;;;;;9.46;57.78;101453.88;4982787;28;20192;-70
2022/04/13 04:01:28;;;;;;;8.73;5.37;;;;;;;9.45;58.50;101454.69;4973252;28;20633;-70
2022/04/13 04:03:54;;;;;;;7.97;4.97;;;;;;;9.44;58.64;101452.94;4993005;28;20286;-70
2022/04/13 04:06:19;;;;;;;8.83;5.40;;;;;;;9.40;58.54;101455.38;4976539;28;20242;-70
2022/04/13 04:08:45;;;;;;;10.17;5.20;;;;;;;9.33;58.68;101458.53;4979929;28;20235;-70
2022/04/13 04:11:11;;;;;;;9.10;5.53;;;;;;;9.32;59.46;101459.34;4986918;28;20198;-70
2022/04/13 04:13:36;;;;;;;9.87;5.57;;;;;;;9.29;58.88;101461.78;4973320;28;20211;-69
2022/04/13 04:16:02;;;;;;;7.90;5.43;;;;;;;9.22;59.97;101458.16;4984818;28;20212;-69
2022/04/13 04:18:28;;;;;;;8.77;4.90;;;;;;;9.16;61.00;101464.72;4985386;28;20184;-70
2022/04/13 04:20:53;;;;;;;8.67;5.67;;;;;;;9.11;59.83;101473.91;4989761;28;20238;-70
2022/04/13 04:23:19;;;;;;;8.60;5.23;;;;;;;9.10;60.40;101472.19;4972288;28;20226;-70
2022/04/13 04:25:45;;;;;;;7.93;5.03;;;;;;;9.09;60.68;101461.13;4985599;28;20183;-70
2022/04/13 04:28:10;;;;;;;8.90;5.83;;;;;;;9.04;61.33;101461.75;4970402;28;20220;-69
2022/04/13 04:30:40;;;;;;;8.37;5.37;;;;;;;9.02;61.35;101474.47;4986222;28;20197;-70
2022/04/13 04:33:06;;;;;;;8.27;5.50;;;;;;;8.99;60.89;101464.13;4974068;28;20199;-71
2022/04/13 04:35:32;;;;;;;5.87;5.20;;;;;;;8.97;60.80;101470.88;4983839;28;20246;-70
2022/04/13 04:37:59;;;;;;;10.43;7.53;;;;;;;8.94;61.29;101478.44;4996439;28;20183;-70
2022/04/13 04:40:25;;;;;;;10.47;8.10;;;;;;;8.93;62.08;101479.25;4970082;28;20620;-70
2022/04/13 04:42:51;;;;;;;9.07;7.47;;;;;;;8.88;61.22;101477.34;4983117;28;20195;-70
2022/04/13 04:45:19;;;;;;;8.77;6.87;;;;;;;8.84;62.55;101481.47;4989728;28;20219;-70
2022/04/13 04:47:45;;;;;;;10.13;7.10;;;;;;;8.78;62.87;101476.16;4989569;28;20291;-70
2022/04/13 04:50:10;;;;;;;9.23;6.90;;;;;;;8.88;61.53;101474.78;4989357;28;20200;-70
2022/04/13 04:52:43;;;;;;;7.53;6.10;;;;;;;8.88;62.49;101477.34;4989553;28;20194;-70
2022/04/13 04:55:09;;;;;;;10.40;7.03;;;;;;;8.89;62.38;101477.41;4990161;28;20215;-70
2022/04/13 04:57:36;;;;;;;10.73;6.67;;;;;;;8.88;62.21;101472.22;4989900;28;20257;-70
2022/04/13 05:00:07;;;;;;;9.97;6.10;;;;;;;8.91;61.63;101474.91;4972810;28;20199;-70
2022/04/13 05:02:33;;;;;;;8.60;5.90;;;;;;;8.95;60.84;101489.53;4972743;28;20548;-70
2022/04/13 05:04:58;;;;;;;7.93;5.40;;;;;;;8.94;61.65;101487.78;4988934;28;20315;-70
2022/04/13 05:07:23;;;;;;;9.73;6.03;;;;;;;8.97;62.14;101486.22;4989865;28;20280;-70
2022/04/13 05:09:50;;;;;;;8.93;5.80;;;;;;;9.02;61.68;101488.91;4990276;28;20211;-70
2022/04/13 05:12:15;;;;;;;7.77;5.90;;;;;;;8.97;61.34;101491.31;4989890;28;20278;-70
2022/04/13 05:14:40;;;;;;;8.67;5.77;;;;;;;9.01;62.15;101488.06;4989983;28;20315;-70
2022/04/13 05:17:05;;;;;;;9.33;6.43;;;;;;;9.05;61.37;101501.81;4990022;28;20247;-70
2022/04/13 05:19:33;;;;;;;8.80;6.37;;;;;;;9.13;61.89;101510.63;4989541;28;20219;-70
2022/04/13 05:21:58;;;;;;;7.37;5.53;;;;;;;9.07;61.71;101506.16;4989812;28;20206;-71
2022/04/13 05:24:24;;;;;;;9.80;5.80;;;;;;;9.20;60.61;101504.91;4989538;28;20712;-70
2022/04/13 05:26:49;;;;;;;8.87;6.07;;;;;;;9.20;61.64;101508.34;4990151;28;20191;-70
2022/04/13 05:29:14;;;;;;;10.03;6.53;;;;;;;9.21;61.08;101504.97;4989379;28;20314;-69
2022/04/13 05:31:39;;;;;;;10.63;6.00;;;;;;;9.26;60.98;101502.59;4990219;28;20206;-70
2022/04/13 05:34:05;;;;;;;9.10;5.93;;;;;;;9.34;61.52;101496.91;4989974;28;20211;-72
2022/04/13 05:36:30;;;;;;;9.17;6.03;;;;;;;9.27;61.10;101507.72;4981441;28;20192;-70
2022/04/13 05:38:55;;;;;;;9.13;6.23;;;;;;;9.36;61.73;101515.72;4987480;28;20330;-69
2022/04/13 05:41:21;;;;;;;10.40;6.27;;;;;;;9.44;60.72;101516.84;4989525;28;20723;-69
2022/04/13 05:43:46;;;;;;;8.80;5.90;;;;;;;9.50;60.72;101516.19;4989660;28;20752;-72
2022/04/13 05:46:11;;;;;;;10.50;6.80;;;;;;;9.50;60.98;101516.19;4989357;28;20737;-71
2022/04/13 05:48:37;;;;;;;10.67;6.73;;;;;;;9.56;61.26;101517.28;4989781;28;20871;-71
2022/04/13 05:51:02;;;;;;;8.17;6.40;;;;;;;9.60;60.71;101514.00;4989723;28;20713;-70
2022/04/13 05:53:27;;;;;;;8.73;6.53;;;;;;;9.60;60.89;101516.56;4992183;28;20220;-70
2022/04/13 05:55:55;;;;;;;9.83;6.87;;;;;;;9.71;60.41;101522.91;4992807;28;20290;-70
2022/04/13 05:58:25;;;;;;;9.43;6.13;;;;;;;9.72;60.95;101518.66;4993081;28;20246;-71
2022/04/13 06:00:50;;;;;;;8.90;5.93;;;;;;;9.79;60.60;101523.16;4993715;28;20188;-70
2022/04/13 06:03:17;;;;;;;11.17;6.83;;;;;;;9.84;60.29;101525.06;4992878;28;20246;-70
2022/04/13 06:05:42;;;;;;;10.80;6.53;;;;;;;9.87;59.89;101520.03;4993392;28;20590;-70
2022/04/13 06:08:08;;;;;;;10.07;7.17;;;;;;;9.91;59.33;101526.97;4975419;28;20208;-70
2022/04/13 06:10:33;;;;;;;8.80;6.57;;;;;;;9.97;59.47;101534.00;4993394;28;20567;-70
2022/04/13 06:12:58;;;;;;;13.40;7.53;;;;;;;10.01;59.68;101538.41;4992510;28;20752;-70
2022/04/13 06:15:24;;;;;;;10.67;7.03;;;;;;;9.89;60.33;101533.75;4992561;28;20767;-71
2022/04/13 06:17:49;;;;;;;9.77;6.57;;;;;;;10.01;59.25;101541.84;4993338;28;20180;-70
2022/04/13 06:20:14;;;;;;;9.63;6.40;;;;;;;10.08;59.05;101540.34;4991264;28;20581;-70
2022/04/13 06:22:42;;;;;;;12.33;6.30;;;;;;;10.14;59.30;101550.81;4975306;28;20207;-70
2022/04/13 06:25:09;;;;;;;8.50;6.03;;;;;;;10.13;59.92;101552.47;4992492;28;20407;-70
2022/04/13 06:27:35;;;;;;;9.70;6.60;;;;;;;10.25;59.22;101552.00;4975421;28;20586;-70
2022/04/13 06:30:00;;;;;;;11.07;7.30;;;;;;;10.18;58.98;101553.50;4992118;28;20204;-70
2022/04/13 06:32:33;;;;;;;8.73;6.20;;;;;;;10.30;58.78;101555.59;4992603;28;20195;-70
2022/04/13 06:34:59;;;;;;;10.43;7.30;;;;;;;10.37;59.41;101550.69;4992811;28;20263;-70
2022/04/13 06:37:25;;;;;;;8.43;6.73;;;;;;;10.43;59.00;101550.03;4990719;28;20294;-70
2022/04/13 06:39:50;;;;;;;10.23;7.00;;;;;;;10.39;58.69;101558.44;4982279;28;20917;-70
2022/04/13 06:42:15;;;;;;;9.37;6.60;;;;;;;10.57;58.88;101554.75;4991682;28;20609;-70
2022/04/13 06:44:41;;;;;;;8.73;6.67;;;;;;;10.70;58.40;101556.00;4975617;28;20677;-70
2022/04/13 06:47:06;;;;;;;13.13;6.87;;;;;;;10.72;58.53;101557.78;4974104;28;20625;-70
2022/04/13 06:49:31;;;;;;;10.77;7.03;;;;;;;10.83;58.37;101569.22;4973187;28;20720;-70
2022/04/13 06:51:57;;;;;;;8.90;6.63;;;;;;;10.72;58.47;101569.72;4973342;28;20251;-70
2022/04/13 06:54:22;;;;;;;7.53;6.30;;;;;;;10.87;59.04;101568.47;4971548;28;20204;-70
2022/04/13 06:56:48;;;;;;;11.33;7.10;;;;;;;11.00;58.17;101568.03;4983903;28;20242;-70
2022/04/13 06:59:13;;;;;;;9.50;7.37;;;;;;;11.10;58.25;101569.16;4974554;28;20226;-70
2022/04/13 07:01:38;;;;;;;12.27;7.07;;;;;;;11.37;57.34;101572.47;4992538;28;20176;-70
2022/04/13 07:04:05;;;;;;;10.63;7.20;;;;;;;11.39;57.62;101574.25;4973576;28;20823;-70
2022/04/13 07:06:30;;;;;;;11.90;6.87;;;;;;;11.70;58.10;101566.59;4989837;28;20449;-69
2022/04/13 07:08:55;;;;;;;10.63;7.40;;;;;;;11.67;55.68;101561.41;4974575;28;20646;-70
2022/04/13 07:11:21;;;;;;;10.97;7.37;;;;;;;11.56;56.43;101569.63;4991785;28;20185;-69
2022/04/13 07:13:46;;;;;;;8.77;7.10;;;;;;;11.77;55.51;101571.09;4996294;28;20233;-70
2022/04/13 07:16:11;;;;;;;10.23;6.70;;;;;;;11.99;55.67;101582.78;4997096;28;20188;-70
2022/04/13 07:18:37;;;;;;;8.53;6.80;;;;;;;11.95;56.08;101580.94;5009607;28;20582;-70
2022/04/13 07:21:02;;;;;;;9.40;7.20;;;;;;;11.73;56.81;101582.09;5009519;28;20203;-70
2022/04/13 07:23:28;;;;;;;10.27;7.50;;;;;;;11.77;57.44;101580.47;5010783;28;20206;-70
2022/04/13 07:25:53;;;;;;;9.47;6.80;;;;;;;11.90;56.77;101580.81;5010787;28;20699;-70
2022/04/13 07:28:20;;;;;;;13.17;7.30;;;;;;;12.01;55.89;101586.22;5010662;28;20219;-70
2022/04/13 07:30:45;;;;;;;12.43;7.17;;;;;;;12.08;56.05;101581.28;5007606;28;20206;-70
2022/04/13 07:33:10;;;;;;;10.37;7.43;;;;;;;12.28;56.06;101567.25;5009802;28;20683;-70
2022/04/13 07:35:36;;;;;;;10.00;7.73;;;;;;;12.58;55.97;101567.09;5001972;28;20207;-70
2022/04/13 07:38:02;;;;;;;10.87;7.47;;;;;;;12.49;54.75;101572.88;4977877;28;20636;-70
2022/04/13 07:40:27;;;;;;;11.37;7.10;;;;;;;12.42;55.31;101568.44;5010526;28;20578;-69
2022/04/13 07:42:52;;;;;;;12.10;7.50;;;;;;;12.64;55.07;101575.81;5010575;28;20677;-70
2022/04/13 07:45:18;;;;;;;12.70;7.33;;;;;;;12.73;55.45;101578.56;5009613;28;20786;-70
2022/04/13 07:47:43;;;;;;;9.93;7.53;;;;;;;12.93;54.58;101563.59;5010587;28;20672;-69
2022/04/13 07:50:13;;;;;;;12.80;7.67;;;;;;;13.14;54.18;101561.50;5009790;28;20199;-70
2022/04/13 07:52:40;;;;;;;9.67;7.90;;;;;;;13.07;53.89;101563.94;5010439;28;20209;-70
2022/04/13 07:55:07;;;;;;;10.50;7.57;;;;;;;13.44;54.55;101562.09;5009011;28;20306;-70
2022/04/13 07:57:33;;;;;;;11.17;7.30;;;;;;;13.69;53.41;101566.91;5009221;28;20653;-70
2022/04/13 07:59:58;;;;;;;11.20;7.73;;;;;;;13.56;53.61;101559.78;5010442;28;20187;-69
2022/04/13 08:02:24;;;;;;;9.80;7.80;;;;;;;13.89;53.15;101557.81;5009934;28;20195;-69
2022/04/13 08:04:49;;;;;;;10.73;7.23;;;;;;;14.14;52.31;101556.50;5010277;28;20309;-70
2022/04/13 08:07:15;;;;;;;10.80;7.77;;;;;;;13.94;52.78;101563.91;5009833;28;20186;-69
2022/04/13 08:09:41;;;;;;;10.80;7.80;;;;;;;14.01;52.34;101560.59;5010207;28;20218;-69
2022/04/13 08:12:07;;;;;;;11.13;7.60;;;;;;;14.30;51.84;101566.25;5009830;28;20202;-70
2022/04/13 08:14:32;;;;;;;10.00;7.77;;;;;;;14.66;51.01;101574.53;5009684;28;20203;-69
2022/04/13 08:16:57;;;;;;;9.67;7.97;;;;;;;14.92;50.55;101576.63;5009430;28;20246;-69
2022/04/13 08:19:23;;;;;;;8.93;7.57;;;;;;;15.39;49.94;101567.81;5009652;28;20207;-70
2022/04/13 08:21:49;;;;;;;9.90;7.77;;;;;;;15.36;50.16;101579.81;5010031;28;20214;-69
2022/04/13 08:24:17;;;;;;;8.97;7.23;;;;;;;15.57;48.53;101574.91;5009176;28;20600;-69
2022/04/13 08:26:44;;;;;;;11.87;8.27;;;;;;;15.33;49.11;101584.91;5009746;28;20237;-70
2022/04/13 08:29:09;;;;;;;9.80;7.83;;;;;;;15.35;49.04;101585.81;5009098;28;20225;-70
2022/04/13 08:31:35;;;;;;;10.87;7.90;;;;;;;15.85;48.33;101584.66;5009399;28;20187;-69
2022/04/13 08:34:00;;;;;;;12.70;8.73;;;;;;;16.22;47.60;101579.84;5009760;28;20229;-69
2022/04/13 08:36:25;;;;;;;11.07;8.20;;;;;;;16.40;48.19;101579.16;5008942;28;20249;-70
2022/04/13 08:38:51;;;;;;;9.83;7.97;;;;;;;16.44;47.35;101579.19;5003452;28;20282;-71
2022/04/13 08:41:24;;;;;;;12.47;8.60;;;;;;;16.48;45.72;101575.75;5006571;28;20191;-70
2022/04/13 08:44:03;;;;;;;12.27;8.87;;;;;;;16.55;44.91;101580.13;5005498;28;20214;-70
2022/04/13 08:46:33;;;;;;;12.80;8.90;;;;;;;17.25;44.26;101576.19;4989693;28;20199;-72
2022/04/13 08:49:00;;;;;;;12.70;9.10;;;;;;;16.88;43.04;101567.41;4972617;28;20318;-70
2022/04/13 08:51:26;;;;;;;13.93;9.67;;;;;;;17.50;43.45;101568.56;4989950;28;20195;-72
2022/04/13 08:54:07;;;;;;;14.23;9.27;;;;;;;17.57;42.57;101572.03;4989224;28;20314;-70
2022/04/13 08:56:35;;;;;;;14.50;8.47;;;;;;;18.06;42.12;101569.50;4989619;28;20187;-70
2022/04/13 08:59:08;;;;;;;10.60;8.57;;;;;;;17.77;42.11;101579.00;4971813;28;20214;-70
2022/04/13 09:01:50;;;;;;;10.23;8.00;;;;;;;18.49;45.52;101581.66;4997782;28;20665;-69
2022/04/13 09:04:18;;;;;;;12.57;8.80;;;;;;;18.83;40.79;101585.91;4989105;28;20624;-70
2022/04/13 09:06:44;;;;;;;12.07;8.77;;;;;;;18.83;40.29;101588.50;4989306;28;20192;-71
2022/04/13 09:09:15;;;;;;;13.77;9.20;;;;;;;19.20;39.26;101586.69;5002896;28;20261;-70
2022/04/13 09:11:44;;;;;;;11.37;8.87;;;;;;;19.53;40.21;101587.41;4991243;28;20266;-71
2022/04/13 09:14:10;;;;;;;12.17;9.40;;;;;;;19.22;39.81;101600.53;4994927;28;20234;-71
2022/04/13 09:16:35;;;;;;;11.33;8.93;;;;;;;18.83;40.86;101592.88;5008308;28;20184;-71
2022/04/13 09:19:03;;;;;;;13.40;9.57;;;;;;;19.09;41.42;101593.63;5008302;28;20644;-71
2022/04/13 09:21:30;;;;;;;12.53;8.97;;;;;;;19.36;40.25;101594.44;5007651;28;20195;-72
2022/04/13 09:23:55;;;;;;;12.27;9.00;;;;;;;19.22;40.15;101601.44;5008813;28;20733;-71
2022/04/13 09:26:24;;;;;;;13.17;9.47;;;;;;;19.70;38.95;101595.13;5008500;28;20184;-71
2022/04/13 09:28:49;;;;;;;13.20;9.00;;;;;;;20.36;38.24;101597.28;5008003;28;20233;-71
2022/04/13 09:31:15;;;;;;;11.43;8.48;;;;;;;20.92;37.46;101593.28;5008796;28;20823;-72
2022/04/13 09:33:40;;;;;;;11.20;8.97;;;;;;;20.61;37.33;101602.28;5008551;28;20314;-72
2022/04/13 09:36:05;;;;;;;12.47;10.17;;;;;;;20.78;38.24;101596.91;5008320;28;20281;-71
2022/04/13 09:38:32;;;;;;;11.23;8.90;;;;;;;20.45;37.71;101608.47;5002183;28;20191;-71
2022/04/13 09:41:11;;;;;;;12.53;9.17;;;;;;;21.35;36.69;101597.13;5008580;28;20600;-71
2022/04/13 09:43:37;;;;;;;11.20;9.03;;;;;;;21.96;35.31;101582.41;5008819;28;20213;-71
2022/04/13 09:46:03;;;;;;;13.30;8.87;;;;;;;21.25;37.14;101594.66;5008087;28;20199;-71
2022/04/13 09:48:29;;;;;;;12.13;9.27;;;;;;;21.84;35.96;101587.78;4991371;28;20581;-71
2022/04/13 09:50:59;;;;;;;12.93;9.33;;;;;;;22.34;34.97;101585.25;5008398;28;20179;-71
2022/04/13 09:53:24;;;;;;;11.90;8.80;;;;;;;23.05;36.11;101583.97;5007235;28;20197;-72
2022/04/13 09:55:52;;;;;;;12.13;8.57;;;;;;;23.24;35.69;101581.91;5006919;28;20278;-72
2022/04/13 09:58:19;;;;;;;12.95;9.38;;;;;;;23.00;35.79;101579.72;5008761;28;20178;-71
2022/04/13 10:00:47;;;;;;;11.60;9.65;;;;;;;22.76;35.45;101577.59;5008980;28;20218;-72
2022/04/13 10:03:18;;;;;;;13.27;9.13;;;;;;;22.14;36.67;101591.69;4990769;28;20190;-72
2022/04/13 10:06:01;;;;;;;10.90;8.30;;;;;;;22.30;36.99;101591.41;5003356;28;20235;-71
2022/04/13 10:08:28;;;;;;;10.80;8.97;;;;;;;23.01;35.51;101587.53;4998247;28;20227;-72
2022/04/13 10:10:56;;;;;;;11.63;9.13;;;;;;;23.60;34.55;101586.31;4990063;28;20625;-71
2022/04/13 10:13:34;;;;;;;12.50;8.85;;;;;;;23.50;35.61;101579.56;4989384;28;20703;-71
2022/04/13 10:16:03;;;;;;;13.68;9.40;;;;;;;22.87;35.76;101581.72;4989113;28;20207;-71
2022/04/13 10:18:31;;;;;;;12.37;9.37;;;;;;;22.88;35.87;101582.59;4988878;28;20266;-71
2022/04/13 10:20:57;;;;;;;12.60;9.43;;;;;;;22.77;36.09;101584.53;4989118;28;21020;-71
2022/04/13 10:23:22;;;;;;;10.80;8.47;;;;;;;23.64;35.99;101588.84;4972690;28;20203;-71
2022/04/13 10:25:47;;;;;;;13.77;9.48;;;;;;;23.97;35.07;101582.88;5007917;28;20198;-72
2022/04/13 10:28:20;;;;;;;11.23;9.27;;;;;;;24.23;34.18;101587.50;4998866;28;20239;-71
2022/04/13 10:30:46;;;;;;;12.80;9.40;;;;;;;23.12;35.88;101584.72;4993688;28;20171;-72
2022/04/13 10:33:13;;;;;;;15.27;9.35;;;;;;;23.87;35.17;101580.47;4995615;28;20682;-71
2022/04/13 10:35:41;;;;;;;11.37;8.97;;;;;;;23.00;36.52;101577.09;5007941;28;20630;-71
2022/04/13 10:38:07;;;;;;;13.10;8.98;;;;;;;24.07;35.06;101583.53;5009264;28;20183;-71
2022/04/13 10:40:34;;;;;;;11.37;9.47;;;;;;;23.94;35.28;101580.31;5011723;28;20674;-71
2022/04/13 10:43:02;;;;;;;15.13;9.27;;;;;;;23.72;35.12;101579.09;5010675;28;20179;-71
2022/04/13 10:45:29;;;;;;;13.25;9.50;;;;;;;24.28;35.22;101573.41;4996819;28;20239;-71
2022/04/13 10:48:10;;;;;;;13.95;9.73;;;;;;;24.37;34.42;101574.91;5002959;28;20265;-71
2022/04/13 10:50:57;;;;;;;12.15;9.02;;;;;;;23.74;35.71;101587.75;4994068;28;20206;-71
2022/04/13 10:53:25;;;;;;;14.50;10.97;;;;;;;23.11;35.96;101591.69;4993875;28;20194;-71
2022/04/13 10:55:57;;;;;;;12.53;9.63;;;;;;;23.10;36.60;101586.47;5011623;28;20218;-71
2022/04/13 10:58:58;;;;;;;13.20;9.70;;;;;;;23.06;36.67;101596.13;5011265;28;20245;-72
2022/04/13 11:01:28;;;;;;;12.97;9.43;;;;;;;23.19;37.21;101594.19;5003852;28;20602;-71
2022/04/13 11:03:53;;;;;;;12.63;9.70;;;;;;;22.98;37.36;101599.81;4993737;28;21104;-71
2022/04/13 11:06:20;;;;;;;15.47;10.03;;;;;;;23.22;36.72;101589.78;4990478;28;20196;-71
2022/04/13 11:09:01;;;;;;;14.27;9.90;;;;;;;23.60;35.93;101597.66;4991477;28;20704;-71
2022/04/13 11:11:29;;;;;;;17.27;10.43;;;;;;;23.35;36.26;101591.25;4991728;28;20283;-71
2022/04/13 11:13:55;;;;;;;12.80;9.40;;;;;;;23.37;36.74;101599.03;4989018;28;20278;-72
2022/04/13 11:16:22;;;;;;;16.63;10.27;;;;;;;23.81;36.32;101599.78;4991728;28;20187;-72
2022/04/13 11:19:06;;;;;;;14.85;9.80;;;;;;;23.35;36.92;101593.84;5007738;28;20206;-71
2022/04/13 11:21:55;;;;;;;13.13;10.10;;;;;;;23.67;36.73;101601.00;5008680;28;20195;-72